createdAt,value
2023-05-24T00:02:55.557Z,9.20
2023-05-24T00:08:03.503Z,8.02
2023-05-24T00:13:08.711Z,7.65
2023-05-24T00:18:14.253Z,6.68
2023-05-24T00:23:22.075Z,6.75
2023-05-24T00:28:27.257Z,7.28
2023-05-24T00:33:32.542Z,6.93
2023-05-24T00:38:40.398Z,6.65
2023-05-24T00:43:46.483Z,7.15
2023-05-24T00:48:52.931Z,7.57
2023-05-24T00:54:00.863Z,7.95
2023-05-24T00:59:06.629Z,7.57
2023-05-24T01:04:11.896Z,6.82
2023-05-24T01:09:29.400Z,6.80
2023-05-24T01:14:41.792Z,7.57
2023-05-24T01:19:55.897Z,7.18
2023-05-24T01:25:07.272Z,7.30
2023-05-24T01:30:15.907Z,7.50
2023-05-24T01:35:21.149Z,6.80
2023-05-24T01:40:26.328Z,7.35
2023-05-24T01:45:38.952Z,7.38
2023-05-24T01:50:53.028Z,7.68
2023-05-24T01:56:00.117Z,8.27
2023-05-24T02:01:08.431Z,8.20
2023-05-24T02:06:13.807Z,8.25
2023-05-24T02:11:18.947Z,9.00
2023-05-24T02:16:27.172Z,8.18
2023-05-24T02:21:33.020Z,9.32
2023-05-24T02:26:38.169Z,8.77
2023-05-24T02:31:45.951Z,10.05
2023-05-24T02:36:50.969Z,9.60
2023-05-24T02:41:56.250Z,10.15
2023-05-24T02:47:04.002Z,9.02
2023-05-24T02:52:09.744Z,8.48
2023-05-24T02:57:14.893Z,8.95
2023-05-24T03:02:22.739Z,9.10
2023-05-24T03:07:28.005Z,8.77
2023-05-24T03:12:33.247Z,8.60
2023-05-24T03:17:41.486Z,8.38
2023-05-24T03:22:46.613Z,9.13
2023-05-24T03:27:51.741Z,8.05
2023-05-24T03:32:59.716Z,8.60
2023-05-24T03:38:04.907Z,8.30
2023-05-24T03:43:10.163Z,7.28
2023-05-24T03:48:18.108Z,7.35
2023-05-24T03:53:24.164Z,8.18
2023-05-24T03:58:29.292Z,7.57
2023-05-24T04:03:37.048Z,7.78
2023-05-24T04:08:42.389Z,8.05
2023-05-24T04:13:47.498Z,7.70
2023-05-24T04:18:55.639Z,8.05
2023-05-24T04:24:01.887Z,8.02
2023-05-24T04:29:08.019Z,8.40
2023-05-24T04:34:16.619Z,8.30
2023-05-24T04:39:22.039Z,8.20
2023-05-24T04:44:27.577Z,8.25
2023-05-24T04:49:35.407Z,8.77
2023-05-24T04:54:40.506Z,8.88
2023-05-24T04:59:45.785Z,8.27
2023-05-24T05:04:53.386Z,8.90
2023-05-24T05:09:58.441Z,10.00
2023-05-24T05:15:03.552Z,9.98
2023-05-24T05:20:12.413Z,10.30
2023-05-24T05:25:17.818Z,10.48
2023-05-24T05:30:23.043Z,9.88
2023-05-24T05:35:30.812Z,10.27
2023-05-24T05:40:36.128Z,8.95
2023-05-24T05:45:45.570Z,8.70
2023-05-24T05:50:53.330Z,7.63
2023-05-24T05:55:59.128Z,7.30
2023-05-24T06:01:04.681Z,8.00
2023-05-24T06:06:12.615Z,7.47
2023-05-24T06:11:17.824Z,6.72
2023-05-24T06:16:23.160Z,6.68
2023-05-24T06:21:31.087Z,7.47
2023-05-24T06:26:37.318Z,6.72
2023-05-24T06:31:43.790Z,7.13
2023-05-24T06:36:53.233Z,8.27
2023-05-24T06:47:03.277Z,7.40
2023-05-24T06:52:12.246Z,7.80
2023-05-24T06:57:17.895Z,6.82
2023-05-24T07:02:27.764Z,7.07
2023-05-24T07:07:35.655Z,7.10
2023-05-24T07:12:42.771Z,6.95
2023-05-24T07:17:48.545Z,7.30
2023-05-24T07:22:56.437Z,8.38
2023-05-24T07:28:01.813Z,6.38
2023-05-24T07:33:07.159Z,5.93
2023-05-24T07:38:14.947Z,5.05
2023-05-24T07:43:20.381Z,5.70
2023-05-24T07:48:36.193Z,8.73
2023-05-24T07:53:43.934Z,8.35
2023-05-24T07:58:49.560Z,6.57
2023-05-24T08:03:58.091Z,6.15
2023-05-24T08:09:06.104Z,6.33
2023-05-24T08:14:11.359Z,6.40
2023-05-24T08:19:16.617Z,7.97
2023-05-24T08:24:24.644Z,6.90
2023-05-24T08:29:29.698Z,7.88
2023-05-24T08:34:36.725Z,7.70
2023-05-24T08:39:44.404Z,7.18
2023-05-24T08:44:53.626Z,8.60
2023-05-24T08:55:07.836Z,8.10
2023-05-24T09:00:14.790Z,8.38
2023-05-24T09:05:22.184Z,6.38
2023-05-24T09:10:41.291Z,6.75
2023-05-24T09:15:56.611Z,6.07
2023-05-24T09:21:01.810Z,5.43
2023-05-24T09:26:13.685Z,7.45
2023-05-24T09:31:18.907Z,6.55
2023-05-24T09:36:26.628Z,6.28
2023-05-24T09:41:34.348Z,5.90
2023-05-24T09:46:40.047Z,5.95
2023-05-24T09:51:45.377Z,6.45
2023-05-24T09:56:54.836Z,7.05
2023-05-24T10:02:10.794Z,6.55
2023-05-24T10:07:16.547Z,8.60
2023-05-24T10:12:25.994Z,8.07
2023-05-24T10:17:31.461Z,8.38
2023-05-24T10:22:38.703Z,6.63
2023-05-24T10:27:47.584Z,8.60
2023-05-24T10:32:55.199Z,7.50
2023-05-24T10:38:02.189Z,8.68
2023-05-24T10:43:11.490Z,7.35
2023-05-24T10:48:38.456Z,7.97
2023-05-24T10:53:43.692Z,8.95
2023-05-24T10:59:02.862Z,8.15
2023-05-24T11:04:10.936Z,7.90
2023-05-24T11:09:16.084Z,6.63
2023-05-24T11:14:29.308Z,7.10
2023-05-24T11:19:45.486Z,6.97
2023-05-24T11:24:50.830Z,7.55
2023-05-24T11:29:58.622Z,6.15
2023-05-24T11:35:09.084Z,7.13
2023-05-24T11:40:16.716Z,6.38
2023-05-24T11:45:24.914Z,5.80
2023-05-24T11:50:33.108Z,6.88
2023-05-24T11:55:44.930Z,6.82
2023-05-24T12:00:53.982Z,6.05
2023-05-24T12:06:00.796Z,6.40
2023-05-24T12:11:06.899Z,6.38
2023-05-24T12:16:15.986Z,5.55
2023-05-24T12:21:21.812Z,6.68
2023-05-24T12:26:27.085Z,5.32
2023-05-24T12:31:35.048Z,5.75
2023-05-24T12:36:41.329Z,4.70
2023-05-24T12:41:46.358Z,4.88
2023-05-24T12:46:54.075Z,4.93
2023-05-24T12:51:59.817Z,4.05
2023-05-24T12:57:05.490Z,4.07
2023-05-24T13:02:13.793Z,4.57
2023-05-24T13:07:18.914Z,3.70
2023-05-24T13:12:24.763Z,3.72
2023-05-24T13:17:32.867Z,3.58
2023-05-24T13:22:38.655Z,4.10
2023-05-24T13:27:44.079Z,4.68
2023-05-24T13:32:53.204Z,4.55
2023-05-24T13:37:58.882Z,3.45
2023-05-24T13:43:04.222Z,4.00
2023-05-24T13:48:12.164Z,3.83
2023-05-24T13:53:17.279Z,3.78
2023-05-24T13:58:22.507Z,3.38
2023-05-24T14:03:30.837Z,3.38
2023-05-24T14:18:52.041Z,3.75
2023-05-24T14:23:57.103Z,3.10
2023-05-24T14:29:02.353Z,3.50
2023-05-24T14:34:10.066Z,3.80
2023-05-24T14:39:15.203Z,3.43
2023-05-24T14:44:20.288Z,3.15
2023-05-24T14:49:28.072Z,3.45
2023-05-24T14:54:33.180Z,4.43
2023-05-24T14:59:38.340Z,3.38
2023-05-24T15:04:46.343Z,3.03
2023-05-24T15:09:51.569Z,3.63
2023-05-24T15:14:56.930Z,3.40
2023-05-24T15:20:04.862Z,3.65
2023-05-24T15:25:11.921Z,3.43
2023-05-24T15:30:17.831Z,3.88
2023-05-24T15:35:25.500Z,3.30
2023-05-24T15:40:30.792Z,3.75
2023-05-24T15:45:36.609Z,3.72
2023-05-24T15:51:16.502Z,3.88
2023-05-24T15:56:10.225Z,4.15
2023-05-24T16:01:15.342Z,4.80
2023-05-24T16:06:23.143Z,4.90
2023-05-24T16:11:28.319Z,4.60
2023-05-24T16:16:33.456Z,8.55
2023-05-24T16:21:41.930Z,4.32
2023-05-24T16:26:47.126Z,4.30
2023-05-24T16:31:52.317Z,3.72
2023-05-24T16:37:00.474Z,4.47
2023-05-24T16:42:07.435Z,4.30
2023-05-24T16:47:15.526Z,7.60
2023-05-24T16:52:23.232Z,5.00
2023-05-24T16:57:28.313Z,4.05
2023-05-24T17:02:33.492Z,4.93
2023-05-24T17:07:41.338Z,5.78
2023-05-24T17:12:47.820Z,4.95
2023-05-24T17:17:53.990Z,5.45
2023-05-24T17:23:01.685Z,4.78
2023-05-24T17:28:06.826Z,4.78
2023-05-24T17:33:12.122Z,5.38
2023-05-24T17:38:20.031Z,9.32
2023-05-24T17:43:29.013Z,5.47
2023-05-24T17:53:43.793Z,5.40
2023-05-24T17:58:48.961Z,6.28
2023-05-24T18:03:54.009Z,6.05
2023-05-24T18:09:01.844Z,6.45
2023-05-24T18:14:07.793Z,5.70
2023-05-24T18:19:12.995Z,7.03
2023-05-24T18:24:20.915Z,6.85
2023-05-24T18:29:26.044Z,6.80
2023-05-24T18:34:31.278Z,6.68
2023-05-24T18:39:39.202Z,6.85
2023-05-24T18:44:44.339Z,8.05
2023-05-24T18:49:49.390Z,6.50
2023-05-24T18:54:58.972Z,6.85
2023-05-24T19:00:04.677Z,8.00
2023-05-24T19:05:10.252Z,7.88
2023-05-24T19:10:18.007Z,7.85
2023-05-24T19:15:24.165Z,7.97
2023-05-24T19:20:29.340Z,7.78
2023-05-24T19:25:41.927Z,7.68
2023-05-24T19:30:47.945Z,8.48
2023-05-24T19:35:52.998Z,7.72
2023-05-24T19:41:00.884Z,8.55
2023-05-24T19:46:07.609Z,8.77
2023-05-24T19:51:13.541Z,9.55
2023-05-24T19:56:21.350Z,8.77
2023-05-24T20:01:26.547Z,8.77
2023-05-24T20:06:31.774Z,8.40
2023-05-24T20:11:39.567Z,8.38
2023-05-24T20:16:44.761Z,8.50
2023-05-24T20:21:49.890Z,8.50
2023-05-24T20:26:57.672Z,8.65
2023-05-24T20:32:02.928Z,8.13
2023-05-24T20:37:08.538Z,8.80
2023-05-24T20:42:16.294Z,8.95
2023-05-24T20:47:21.556Z,8.73
2023-05-24T20:52:26.602Z,8.07
2023-05-24T20:57:34.303Z,8.65
2023-05-24T21:02:40.599Z,9.70
2023-05-24T21:07:45.811Z,8.07
2023-05-24T21:12:53.707Z,9.13
2023-05-24T21:17:58.945Z,8.93
2023-05-24T21:23:04.131Z,8.68
2023-05-24T21:28:11.935Z,9.73
2023-05-24T21:33:17.144Z,10.00
2023-05-24T21:38:22.339Z,8.93
2023-05-24T21:43:30.262Z,11.90
2023-05-24T21:48:35.431Z,10.82
2023-05-24T21:53:40.645Z,9.55
2023-05-24T21:58:48.970Z,9.02
2023-05-24T22:03:54.257Z,8.52
2023-05-24T22:09:02.217Z,8.63
2023-05-24T22:14:11.136Z,10.40
2023-05-24T22:19:22.433Z,10.93
2023-05-24T22:24:33.899Z,9.32
2023-05-24T22:29:41.928Z,9.27
2023-05-24T22:34:47.537Z,8.93
2023-05-24T22:39:52.783Z,9.70
2023-05-24T22:45:00.725Z,8.75
2023-05-24T22:50:06.170Z,9.35
2023-05-24T22:55:12.090Z,9.57
2023-05-24T23:00:21.400Z,10.05
2023-05-24T23:05:26.613Z,10.45
2023-05-24T23:10:31.713Z,10.45
2023-05-24T23:15:39.579Z,11.02
2023-05-24T23:20:45.494Z,10.88
2023-05-24T23:25:51.970Z,9.70
2023-05-24T23:31:00.271Z,11.05
2023-05-24T23:36:06.614Z,9.60
2023-05-24T23:41:12.021Z,9.57
2023-05-24T23:46:20.269Z,9.27
2023-05-24T23:51:25.468Z,9.43
2023-05-24T23:56:30.870Z,9.40
